Terminal Aerodrome Forecast
Issued by NWS Chicago, IL

Home | Current Version | Previous Version | Graphics & Text | Print | Product List | Glossary On
Versions: 1 2 3 4 5 6 7 8 9 10 11 12 13 14 15 16 17 18 19 20 21 22 23 24 25
021
FTUS43 KLOT 231604 AAA
TAFRFD
TAF AMD
KRFD 231604Z 2316/2412 20012G18KT P6SM FEW050 BKN250
     FM240000 17008KT P6SM BKN250
     FM240900 17008KT P6SM VCSH BKN030
      TEMPO 2409/2412 3SM TSRA SCT010 OVC018CB=

USA.gov is the U.S. government's official web portal to all federal, state and local government web resources and services.